Flight Track Log - Related Links

Times and Time Zones

All times are in EDT time to prevent confusion due to time zone crossing. See the CTL14 flight status page for this flight to view local times or setup timezone preferences in your user account.

Time Position Orientation Groundspeed Altitude Reporting Facility
EDT Latitude Longitude Course Direction KTS MPH feet Rate Location/Type
Thu 11:16:28 PM 40.5522 -88.8625 16° North 141 162 3,800  Level Chicago Center
Thu 11:17:29 PM 40.5969 -88.8450 17° North 146 168 5,000 1,073 Climbing Chicago Center
Thu 11:18:31 PM 40.6381 -88.8364 North 148 170 6,000 878 Climbing Chicago Center
Thu 11:19:32 PM 40.6769 -88.8281 North 144 166 6,800 585 Climbing Chicago Center
Thu 11:20:34 PM 40.7147 -88.8189 10° North 140 161 7,200 146 Climbing Chicago Center
Thu 11:21:35 PM 40.7589 -88.8078 11° North 154 177 7,100 -98 Descending Chicago Center
Thu 11:22:36 PM 40.8056 -88.7972 10° North 166 191 7,000  Descending Chicago Center
Thu 11:23:37 PM 40.8514 -88.7872 North 168 193 7,100 49 Climbing Chicago Center
Thu 11:24:38 PM 40.8972 -88.7769 10° North 167 192 7,100 -49 Level Chicago Center
Thu 11:25:40 PM 40.9431 -88.7650 11° North 168 193 7,000  Descending Chicago Center
Thu 11:26:41 PM 40.9983 -88.7536 North 168 193 7,100  Climbing Chicago Center
Thu 11:27:42 PM 41.0433 -88.7422 11° North 167 192 7,000 -49 Descending Chicago Center
Thu 11:28:44 PM 41.0892 -88.7317 10° North 167 192 7,000  Level Chicago Center
Thu 11:29:45 PM 41.1339 -88.7256 North 163 188 7,000 49 Level Chicago Center
Thu 11:30:46 PM 41.1803 -88.7225 North 165 190 7,100  Climbing Chicago Center
Thu 11:31:47 PM 41.2258 -88.7122 10° North 167 192 7,000  Descending Chicago Center
Thu 11:32:48 PM 41.2728 -88.6986 12° North 171 197 7,100 49 Climbing Chicago Center
Thu 11:33:49 PM 41.3183 -88.6886 North 168 193 7,100 -146 Level Chicago Center
Thu 11:34:51 PM 41.3650 -88.6747 13° North 171 197 6,800 -390 Descending Chicago Center
Thu 11:35:52 PM 41.4256 -88.6519 16° North 184 212 6,300 -344 Descending Chicago Center
Thu 11:36:53 PM 41.4747 -88.6328 16° North 185 213 6,100 -98 Descending Chicago Center
Thu 11:37:54 PM 41.5247 -88.6111 18° North 187 215 6,100 -49 Level Chicago Center
Thu 11:38:55 PM 41.5714 -88.5900 19° North 180 207 6,000 -49 Descending Chicago Center
Thu 11:39:56 PM 41.6189 -88.5714 16° North 177 204 6,000 -344 Level Chicago Center
Thu 11:40:57 PM 41.6706 -88.5508 17° North 192 221 5,300 -590 Descending Chicago Center
Thu 11:41:58 PM 41.7244 -88.5275 18° North 202 232 4,800 -492 Descending Chicago Center
Thu 11:42:59 PM 41.7775 -88.5064 17° North 199 229 4,300 -344 Descending Chicago Center
Thu 11:44:00 PM 41.8308 -88.4853 16° North 199 229 4,100 -148 Descending Chicago Center
Thu 11:45:01 PM 41.8797 -88.4622 19° North 191 220 4,000  Descending Chicago Center
Thu 11:46:02 PM 41.9267 -88.4369 22° Northeast 185 213 4,100 49 Climbing Chicago Center
Thu 11:47:03 PM 41.9594 -88.3775 53° Northeast 195 224 4,100 -246 Level Chicago Center
Thu 11:48:04 PM 41.9983 -88.3092 53° Northeast 192 221 3,600 -639 Descending Chicago Center
Thu 11:49:05 PM 42.0314 -88.2486 54° Northeast 196 226 2,800 -492 Descending Chicago Center
Thu 11:50:06 PM 42.0628 -88.1928 53° Northeast 198 228 2,600 -197 Descending Chicago Center
Thu 11:52:00 PM 42.0838 -88.0747 90° East  Level Estimated
Thu 11:59:00 PM 42.1000 -87.9000 166° South  Level FlightAware Approximate
Fri 12:00:00 AM 42.1143 -87.9015 166° South  Level Estimated

Login

Don't have an account? Register now (free) for customized features, flight alerts, and more!